Time;durP1;ratioP1;P1;durP2;ratioP2;P2;SDS_P1;SDS_P2;PMS_P1;PMS_P2;Temp;Humidity;BMP_temperature;BMP_pressure;BME280_temperature;BME280_humidity;BME280_pressure;Samples;Min_cycle;Max_cycle;Signal;HPM_P1;HPM_P2
2022/05/09 00:01:41;;;;;;;4.20;3.70;;;;;;;22.05;48.24;100167.59;1847743;77;21060;-67
2022/05/09 00:04:08;;;;;;;4.58;3.17;;;;;;;22.04;48.23;100174.08;1847944;77;21040;-68
2022/05/09 00:06:35;;;;;;;3.50;3.20;;;;;;;22.04;48.25;100174.59;1847844;77;21528;-67
2022/05/09 00:09:04;;;;;;;4.15;3.47;;;;;;;22.02;48.25;100173.49;1859847;76;21015;-67
2022/05/09 00:11:32;;;;;;;3.62;3.33;;;;;;;22.01;48.26;100173.19;1797361;79;20987;-68
2022/05/09 00:14:00;;;;;;;4.20;3.35;;;;;;;22.01;48.28;100177.24;1798357;79;21048;-67
2022/05/09 00:16:33;;;;;;;3.47;3.17;;;;;;;21.99;48.28;100173.41;1798500;79;21007;-67
2022/05/09 00:18:56;;;;;;;3.67;3.35;;;;;;;21.99;48.32;100167.19;1797056;79;21152;-67
2022/05/09 00:21:22;;;;;;;4.10;3.33;;;;;;;21.96;48.31;100165.78;1874070;76;21008;-67
2022/05/09 00:23:49;;;;;;;3.85;3.17;;;;;;;21.96;48.32;100166.28;1874240;76;21033;-67
2022/05/09 00:26:15;;;;;;;3.27;2.92;;;;;;;21.96;48.37;100165.78;1839539;76;21041;-68
2022/05/09 00:28:43;;;;;;;3.35;3.05;;;;;;;21.94;48.36;100165.70;1814766;79;21049;-66
2022/05/09 00:31:09;;;;;;;3.42;3.12;;;;;;;21.93;48.36;100159.47;1814617;79;21119;-68
2022/05/09 00:33:36;;;;;;;3.70;3.40;;;;;;;21.93;48.37;100162.71;1814565;78;21014;-67
2022/05/09 00:36:02;;;;;;;3.60;3.30;;;;;;;21.92;48.37;100163.25;1814575;79;20994;-67
2022/05/09 00:38:29;;;;;;;3.95;3.55;;;;;;;21.91;48.38;100169.70;1814699;78;20986;-68
2022/05/09 00:43:41;;;;;;;3.42;3.12;;;;;;;21.90;48.40;100163.16;1815911;77;21142;-67
2022/05/09 00:46:08;;;;;;;3.52;3.22;;;;;;;21.88;48.43;100162.58;1814559;79;20985;-68
2022/05/09 00:48:36;;;;;;;3.33;2.90;;;;;;;21.86;48.42;100165.50;1814530;78;21061;-67
2022/05/09 00:51:03;;;;;;;4.12;3.30;;;;;;;21.85;48.44;100167.93;1818259;77;21443;-67
2022/05/09 00:53:31;;;;;;;3.98;3.20;;;;;;;21.84;48.48;100168.97;1845660;77;21571;-67
2022/05/09 00:56:02;;;;;;;3.72;2.87;;;;;;;21.84;48.49;100168.16;1845839;77;21118;-67
2022/05/09 00:58:42;;;;;;;3.15;2.85;;;;;;;21.82;48.49;100172.44;1845460;77;20960;-68
2022/05/09 01:01:10;;;;;;;3.70;3.37;;;;;;;21.81;48.52;100170.80;1848509;76;20978;-67
2022/05/09 01:03:46;;;;;;;3.80;3.50;;;;;;;21.80;48.53;100169.14;1847977;77;21451;-68
2022/05/09 01:06:12;;;;;;;3.35;3.12;;;;;;;21.78;48.52;100168.02;1847844;77;21013;-68
2022/05/09 01:08:39;;;;;;;3.08;2.80;;;;;;;21.76;48.55;100171.48;1847970;77;21083;-68
2022/05/09 01:11:10;;;;;;;3.33;2.65;;;;;;;21.76;48.58;100178.23;1847802;77;21615;-67
2022/05/09 01:13:45;;;;;;;3.83;3.40;;;;;;;21.76;48.56;100185.53;1848046;77;20994;-67
2022/05/09 01:16:11;;;;;;;3.72;3.30;;;;;;;21.74;48.59;100176.30;1846722;77;21079;-67
2022/05/09 01:18:38;;;;;;;4.28;3.22;;;;;;;21.73;48.62;100183.28;1847828;77;21057;-68
2022/05/09 01:21:34;;;;;;;3.05;2.85;;;;;;;21.72;48.63;100181.65;1847890;77;21079;-68
2022/05/09 01:24:02;;;;;;;3.58;3.27;;;;;;;21.72;48.64;100185.70;1812324;79;21509;-67
2022/05/09 01:26:29;;;;;;;3.50;3.20;;;;;;;21.70;48.63;100187.81;1813715;79;21053;-67
2022/05/09 01:28:59;;;;;;;3.62;3.33;;;;;;;21.68;48.64;100192.09;1813424;79;20986;-67
2022/05/09 01:31:26;;;;;;;3.95;3.42;;;;;;;21.68;48.66;100192.63;1847902;77;20997;-67
2022/05/09 01:33:53;;;;;;;3.80;3.05;;;;;;;21.67;48.68;100199.08;1848543;76;21139;-67
2022/05/09 01:36:28;;;;;;;4.47;3.17;;;;;;;21.66;48.72;100202.32;1847768;77;21251;-67
2022/05/09 01:38:59;;;;;;;4.08;3.33;;;;;;;21.65;48.72;100195.25;1824174;77;20974;-67
2022/05/09 01:41:27;;;;;;;3.85;3.47;;;;;;;21.64;48.73;100201.73;1847811;77;21025;-68
2022/05/09 01:43:55;;;;;;;4.95;3.65;;;;;;;21.64;48.73;100204.43;1847908;76;20986;-67
2022/05/09 01:46:25;;;;;;;3.65;3.15;;;;;;;21.62;48.74;100198.43;1848320;77;21141;-67
2022/05/09 01:51:39;;;;;;;4.00;3.60;;;;;;;21.61;48.81;100211.64;1845509;76;21510;-67
2022/05/09 01:54:06;;;;;;;4.87;3.95;;;;;;;21.60;48.78;100212.70;1847760;77;21017;-67
2022/05/09 01:56:35;;;;;;;3.60;3.00;;;;;;;21.59;48.82;100217.30;1848211;77;21041;-67
2022/05/09 01:59:03;;;;;;;4.55;3.83;;;;;;;21.59;48.80;100218.64;1847783;77;21111;-68
2022/05/09 02:01:36;;;;;;;5.62;4.15;;;;;;;21.57;48.82;100218.56;1847770;77;20994;-67
2022/05/09 02:04:03;;;;;;;8.28;4.60;;;;;;;21.57;48.82;100224.78;1825846;77;26622;-67
2022/05/09 02:06:30;;;;;;;3.98;3.58;;;;;;;21.56;48.84;100222.33;1847839;77;21071;-67
2022/05/09 02:08:58;;;;;;;5.50;3.77;;;;;;;21.55;48.84;100226.08;1869325;76;21502;-67
2022/05/09 02:11:24;;;;;;;4.42;3.72;;;;;;;21.54;48.87;100229.84;1874185;76;21232;-67
2022/05/09 02:13:50;;;;;;;4.90;3.72;;;;;;;21.53;48.87;100234.94;1873962;76;21002;-66
2022/05/09 02:16:17;;;;;;;5.12;4.25;;;;;;;21.53;48.88;100237.64;1862787;76;20994;-67
2022/05/09 02:18:44;;;;;;;4.75;3.87;;;;;;;21.52;48.88;100229.25;1847906;77;21001;-67
2022/05/09 02:21:10;;;;;;;6.28;4.20;;;;;;;21.52;48.92;100231.95;1847771;77;21127;-67
2022/05/09 02:23:37;;;;;;;5.30;4.20;;;;;;;21.50;48.90;100230.83;1847877;77;21133;-67
2022/05/09 02:26:03;;;;;;;5.30;3.98;;;;;;;21.49;48.94;100233.21;1870800;76;21491;-68
2022/05/09 02:28:31;;;;;;;4.95;3.90;;;;;;;21.50;48.94;100234.03;1797215;79;21030;-67
2022/05/09 02:30:58;;;;;;;5.53;4.33;;;;;;;21.49;48.94;100233.75;1798330;79;21003;-68
2022/05/09 02:33:24;;;;;;;5.25;4.28;;;;;;;21.48;48.94;100249.15;1798380;79;21487;-67
2022/05/09 02:35:50;;;;;;;5.42;4.30;;;;;;;21.47;48.96;100246.67;1797253;79;21134;-67
2022/05/09 02:38:17;;;;;;;4.53;3.98;;;;;;;21.46;49.00;100249.91;1798356;79;20991;-68
2022/05/09 02:40:46;;;;;;;5.97;4.55;;;;;;;21.46;48.99;100253.11;1797277;79;21046;-67
2022/05/09 02:43:12;;;;;;;4.47;3.75;;;;;;;21.46;49.02;100251.77;1747448;79;21014;-67
2022/05/09 02:45:39;;;;;;;4.45;3.70;;;;;;;21.45;48.98;100251.48;1746266;82;21030;-67
2022/05/09 02:48:07;;;;;;;5.55;4.15;;;;;;;21.44;49.02;100256.06;1746395;82;21340;-68
2022/05/09 02:50:34;;;;;;;4.95;4.28;;;;;;;21.44;49.04;100265.52;1756107;80;21006;-67
2022/05/09 02:53:00;;;;;;;5.20;4.25;;;;;;;21.43;49.09;100260.31;1776908;80;21093;-67
2022/05/09 02:55:28;;;;;;;5.35;4.10;;;;;;;21.42;49.06;100262.16;1777047;80;21054;-68
2022/05/09 02:57:55;;;;;;;6.22;4.70;;;;;;;21.41;49.04;100260.00;1776936;79;21560;-67
2022/05/09 03:00:26;;;;;;;4.87;4.08;;;;;;;21.40;49.05;100272.38;1874162;76;21133;-67
2022/05/09 03:05:40;;;;;;;6.22;4.10;;;;;;;21.39;49.11;100284.25;1874152;76;21010;-67
2022/05/09 03:08:09;;;;;;;4.60;4.08;;;;;;;21.38;49.09;100283.44;1797171;79;20979;-68
2022/05/09 03:10:37;;;;;;;5.70;4.40;;;;;;;21.38;49.15;100282.09;1798411;79;21089;-67
2022/05/09 03:13:05;;;;;;;5.90;4.42;;;;;;;21.37;49.15;100285.01;1797276;79;22020;-67
2022/05/09 03:15:35;;;;;;;4.92;4.17;;;;;;;21.36;49.14;100283.34;1783484;79;21010;-67
2022/05/09 03:18:03;;;;;;;8.88;4.17;;;;;;;21.35;49.18;100286.58;1746371;82;21022;-67
2022/05/09 03:20:30;;;;;;;5.83;4.42;;;;;;;21.35;49.20;100287.94;1746284;82;21037;-68
2022/05/09 03:22:57;;;;;;;5.20;3.83;;;;;;;21.35;49.21;100297.39;1746253;82;20990;-67
2022/05/09 03:25:23;;;;;;;5.22;4.20;;;;;;;21.35;49.21;100297.92;1746196;82;21152;-67
2022/05/09 03:27:51;;;;;;;5.95;3.80;;;;;;;21.34;49.22;100300.31;1746229;82;21495;-67
2022/05/09 03:30:18;;;;;;;5.80;4.00;;;;;;;21.34;49.24;100301.66;1746190;82;21092;-67
2022/05/09 03:32:46;;;;;;;4.33;3.92;;;;;;;21.34;49.27;100300.31;1765702;79;20995;-67
2022/05/09 03:35:14;;;;;;;5.17;4.17;;;;;;;21.33;49.28;100308.13;1797200;79;20978;-67
2022/05/09 03:37:41;;;;;;;4.53;3.95;;;;;;;21.33;49.31;100308.13;1798454;79;21479;-69
2022/05/09 03:40:10;;;;;;;4.50;3.95;;;;;;;21.32;49.36;100309.98;1873869;76;20993;-67
2022/05/09 03:42:36;;;;;;;5.22;3.90;;;;;;;21.32;49.34;100314.04;1874530;76;21006;-68
2022/05/09 03:45:05;;;;;;;4.40;3.83;;;;;;;21.33;49.36;100308.95;1797169;79;20995;-68
2022/05/09 03:47:32;;;;;;;4.85;3.72;;;;;;;21.33;49.37;100310.84;1795939;79;21038;-67
2022/05/09 03:49:58;;;;;;;4.08;3.67;;;;;;;21.32;49.38;100312.69;1798726;79;21223;-68
2022/05/09 03:52:24;;;;;;;4.47;3.85;;;;;;;21.33;49.40;100317.06;1797434;79;21499;-67
2022/05/09 03:54:51;;;;;;;4.53;3.50;;;;;;;21.33;49.42;100321.11;1797359;79;20983;-66
2022/05/09 03:57:18;;;;;;;4.37;3.92;;;;;;;21.33;49.48;100317.06;1797167;79;21073;-68
2022/05/09 03:59:47;;;;;;;5.08;3.90;;;;;;;21.33;49.48;100319.77;1797242;79;21003;-67
2022/05/09 04:03:43;;;;;;;5.55;4.08;;;;;;;21.37;49.48;100336.36;1870469;76;22390;-67
2022/05/09 04:06:10;;;;;;;4.53;3.60;;;;;;;21.34;49.43;100330.88;1822097;78;21013;-67
2022/05/09 04:08:36;;;;;;;5.22;3.85;;;;;;;21.34;49.43;100338.99;1793974;80;21128;-67
2022/05/09 04:11:03;;;;;;;5.03;3.62;;;;;;;21.34;49.43;100338.99;1793981;79;20890;-67
2022/05/09 04:13:29;;;;;;;3.87;3.30;;;;;;;21.34;49.47;100340.84;1794080;80;21517;-67
2022/05/09 04:18:42;;;;;;;4.15;3.67;;;;;;;21.34;49.48;100349.80;1794174;79;20969;-67
2022/05/09 04:21:12;;;;;;;4.65;3.80;;;;;;;21.35;49.50;100364.95;1794035;79;21509;-67
2022/05/09 04:23:39;;;;;;;4.08;3.45;;;;;;;21.34;49.50;100355.71;1795100;78;21094;-69
2022/05/09 04:26:06;;;;;;;5.03;3.80;;;;;;;21.35;49.50;100361.43;1793967;79;20996;-67
2022/05/09 04:28:32;;;;;;;4.40;3.95;;;;;;;21.34;49.53;100365.17;1794189;80;21532;-68
2022/05/09 04:30:59;;;;;;;4.10;3.40;;;;;;;21.34;49.56;100364.66;1793928;80;20994;-67
2022/05/09 04:33:26;;;;;;;4.12;3.70;;;;;;;21.35;49.56;100373.06;1793962;79;21150;-68
2022/05/09 04:35:54;;;;;;;4.58;3.87;;;;;;;21.35;49.56;100370.89;1794007;80;21029;-68
2022/05/09 04:38:22;;;;;;;4.58;3.58;;;;;;;21.35;49.53;100368.19;1794114;80;21493;-68
2022/05/09 04:40:51;;;;;;;3.80;3.40;;;;;;;21.36;49.54;100368.47;1795131;78;21018;-67
2022/05/09 04:43:23;;;;;;;3.47;3.12;;;;;;;21.36;49.52;100376.58;1794282;80;21005;-67
2022/05/09 04:45:50;;;;;;;3.92;3.15;;;;;;;21.36;49.52;100381.98;1794129;79;21119;-68
2022/05/09 04:48:18;;;;;;;3.85;3.47;;;;;;;21.37;49.57;100389.05;1793968;80;20974;-66
2022/05/09 04:50:45;;;;;;;4.22;3.40;;;;;;;21.36;49.57;100387.39;1820492;78;20978;-68
2022/05/09 04:53:13;;;;;;;5.15;3.98;;;;;;;21.35;49.54;100393.33;1826405;78;21033;-68
2022/05/09 04:55:40;;;;;;;3.67;3.20;;;;;;;21.36;49.60;100396.84;1826517;78;21014;-68
2022/05/09 04:58:07;;;;;;;3.52;3.08;;;;;;;21.35;49.59;100394.67;1825447;78;22033;-67
2022/05/09 05:00:34;;;;;;;3.92;2.87;;;;;;;21.37;49.57;100402.56;1760877;78;20993;-67
2022/05/09 05:03:01;;;;;;;3.75;3.30;;;;;;;21.35;49.59;100399.27;1826410;77;21032;-68
2022/05/09 05:05:27;;;;;;;3.22;2.83;;;;;;;21.35;49.59;100398.73;1826549;78;21045;-68
2022/05/09 05:07:54;;;;;;;3.47;2.95;;;;;;;21.35;49.60;100401.97;1826581;78;21021;-67
2022/05/09 05:10:21;;;;;;;3.95;3.22;;;;;;;21.35;49.66;100405.48;1826674;78;21782;-68
2022/05/09 05:12:48;;;;;;;3.95;3.30;;;;;;;21.36;49.64;100409.01;1826523;78;21072;-68
2022/05/09 05:15:15;;;;;;;4.85;3.80;;;;;;;21.37;49.63;100409.33;1824603;78;21030;-69
2022/05/09 05:17:43;;;;;;;4.05;3.35;;;;;;;21.37;49.63;100391.22;1825000;78;21033;-68
2022/05/09 05:20:13;;;;;;;4.55;2.87;;;;;;;21.38;49.64;100405.05;1825922;78;21037;-68
2022/05/09 05:22:41;;;;;;;3.67;3.25;;;;;;;21.39;49.64;100404.52;1825941;78;21253;-67
2022/05/09 05:25:10;;;;;;;3.67;2.80;;;;;;;21.41;49.62;100415.40;1825750;78;21018;-68
2022/05/09 05:27:37;;;;;;;4.60;3.10;;;;;;;21.43;49.63;100407.08;1826279;78;21041;-68
2022/05/09 05:30:05;;;;;;;3.45;3.15;;;;;;;21.44;49.61;100407.92;1826293;78;21049;-67
2022/05/09 05:32:36;;;;;;;3.50;3.20;;;;;;;21.47;49.62;100421.00;1803768;78;21534;-66
2022/05/09 05:35:05;;;;;;;3.50;3.20;;;;;;;21.47;49.64;100419.66;1793563;80;21124;-67
2022/05/09 05:37:33;;;;;;;3.00;2.70;;;;;;;21.49;49.63;100425.12;1793355;79;20982;-67
2022/05/09 05:40:00;;;;;;;4.03;3.62;;;;;;;21.51;49.64;100427.61;1793328;79;21060;-68
2022/05/09 05:42:27;;;;;;;3.17;2.87;;;;;;;21.52;49.63;100436.86;1793808;80;21546;-68
2022/05/09 05:44:54;;;;;;;3.37;3.08;;;;;;;21.53;49.63;100432.27;1793358;80;21056;-68
2022/05/09 05:47:21;;;;;;;3.05;2.75;;;;;;;21.53;49.66;100437.14;1793236;80;21125;-68
2022/05/09 05:49:47;;;;;;;3.25;2.95;;;;;;;21.54;49.65;100440.70;1808095;78;21513;-67
2022/05/09 05:52:14;;;;;;;3.60;2.80;;;;;;;21.55;49.67;100445.85;1825748;78;21014;-70
2022/05/09 05:54:42;;;;;;;3.90;3.22;;;;;;;21.56;49.67;100441.30;1825856;78;21013;-69
2022/05/09 05:57:22;;;;;;;3.27;2.90;;;;;;;21.56;49.65;100443.47;1826102;78;20986;-68
2022/05/09 05:59:56;;;;;;;4.45;2.80;;;;;;;21.58;49.64;100451.36;1825936;78;21211;-68
2022/05/09 06:02:23;;;;;;;3.22;2.92;;;;;;;21.59;49.66;100461.11;1826824;78;20994;-68
2022/05/09 06:04:50;;;;;;;4.12;2.95;;;;;;;21.61;49.69;100450.89;1831685;78;20998;-68
2022/05/09 06:07:17;;;;;;;3.42;3.12;;;;;;;21.63;49.73;100451.50;1831455;78;21517;-68
2022/05/09 06:09:45;;;;;;;3.10;2.80;;;;;;;21.64;49.91;100459.92;1832068;78;21009;-68
2022/05/09 06:12:13;;;;;;;2.77;2.58;;;;;;;21.66;49.96;100452.41;1831942;78;21242;-67
2022/05/09 06:14:40;;;;;;;3.30;3.00;;;;;;;21.67;50.02;100456.78;1832667;78;21021;-68
2022/05/09 06:17:07;;;;;;;3.15;2.90;;;;;;;21.68;50.05;100465.18;1831877;78;21013;-67
2022/05/09 06:19:33;;;;;;;4.25;2.98;;;;;;;21.70;50.02;100467.13;1832031;78;20977;-67
2022/05/09 06:22:01;;;;;;;2.62;2.42;;;;;;;21.73;50.02;100469.91;1830640;78;21126;-68
2022/05/09 06:24:28;;;;;;;3.37;2.80;;;;;;;21.73;50.11;100472.11;1832017;77;21133;-68
2022/05/09 06:26:55;;;;;;;2.85;2.60;;;;;;;21.74;50.12;100471.04;1831890;78;21029;-68
2022/05/09 06:29:22;;;;;;;3.67;3.02;;;;;;;21.75;50.19;100468.65;1832003;78;21471;-68
2022/05/09 06:31:48;;;;;;;3.35;2.60;;;;;;;21.76;50.10;100471.64;1831983;78;21021;-68
2022/05/09 06:34:15;;;;;;;3.27;2.77;;;;;;;21.78;50.10;100474.95;1831962;77;20997;-68
2022/05/09 06:36:43;;;;;;;3.55;2.60;;;;;;;21.80;50.05;100466.61;1832007;78;21128;-68
2022/05/09 06:39:10;;;;;;;2.87;2.67;;;;;;;21.80;50.13;100475.55;1830592;78;21091;-67
2022/05/09 06:41:38;;;;;;;2.90;2.62;;;;;;;21.82;50.14;100471.80;1831872;78;21489;-67
2022/05/09 06:44:04;;;;;;;2.83;2.55;;;;;;;21.84;50.09;100477.81;1831765;78;21072;-67
2022/05/09 06:46:33;;;;;;;2.92;2.72;;;;;;;21.85;50.06;100471.37;1831932;77;21485;-68
2022/05/09 06:49:00;;;;;;;3.10;2.80;;;;;;;21.86;50.12;100478.41;1832157;78;21113;-68
2022/05/09 06:51:27;;;;;;;3.42;2.85;;;;;;;21.87;50.17;100483.61;1831847;77;21045;-67
2022/05/09 06:53:53;;;;;;;3.08;2.60;;;;;;;21.89;50.12;100474.73;1832106;78;21469;-67
2022/05/09 06:56:22;;;;;;;2.70;2.50;;;;;;;21.90;50.16;100482.31;1831093;77;21481;-68
2022/05/09 06:58:49;;;;;;;3.40;2.58;;;;;;;21.91;50.02;100487.51;1832047;77;20982;-67
2022/05/09 07:01:18;;;;;;;3.52;3.05;;;;;;;21.93;50.06;100483.23;1831822;78;21123;-68
2022/05/09 07:03:44;;;;;;;2.77;2.50;;;;;;;21.94;50.00;100487.08;1831807;78;21564;-70
2022/05/09 07:06:11;;;;;;;2.98;2.67;;;;;;;21.94;49.97;100487.58;1831947;77;20994;-68
2022/05/09 07:08:37;;;;;;;3.35;3.05;;;;;;;21.96;49.92;100489.53;1831976;78;21032;-68
2022/05/09 07:11:05;;;;;;;2.80;2.60;;;;;;;21.97;49.92;100495.25;1831903;78;21069;-68
2022/05/09 07:13:31;;;;;;;3.85;3.10;;;;;;;21.98;49.92;100491.48;1831017;78;21772;-67
2022/05/09 07:15:59;;;;;;;2.60;2.40;;;;;;;21.99;49.91;100491.27;1831803;78;21068;-68
2022/05/09 07:18:28;;;;;;;2.80;2.50;;;;;;;22.01;49.93;100498.34;1831931;78;21025;-68
2022/05/09 07:20:58;;;;;;;2.92;2.72;;;;;;;22.03;49.97;100489.47;1832091;77;21489;-68
2022/05/09 07:23:24;;;;;;;2.90;2.67;;;;;;;22.03;49.94;100498.41;1831925;78;21017;-68
2022/05/09 07:25:51;;;;;;;2.35;2.15;;;;;;;22.05;49.92;100496.30;1831955;77;21113;-67
2022/05/09 07:28:22;;;;;;;2.42;2.22;;;;;;;22.07;50.02;100509.08;1831815;77;21037;-67
2022/05/09 07:30:47;;;;;;;2.77;2.58;;;;;;;22.08;49.88;100495.86;1830150;77;21490;-68
2022/05/09 07:33:15;;;;;;;2.87;2.67;;;;;;;22.09;49.91;100504.27;1831945;78;21071;-68
2022/05/09 07:35:44;;;;;;;2.80;2.20;;;;;;;22.10;49.99;100502.41;1832268;77;21565;-67
2022/05/09 07:38:11;;;;;;;3.05;2.65;;;;;;;22.11;49.97;100499.45;1831836;78;21128;-68
2022/05/09 07:40:41;;;;;;;2.55;2.35;;;;;;;22.11;49.97;100514.33;1832018;78;21001;-68
2022/05/09 07:43:12;;;;;;;2.60;2.40;;;;;;;22.14;49.94;100514.43;1831835;78;20997;-68
2022/05/09 07:45:38;;;;;;;2.75;2.35;;;;;;;22.15;49.97;100516.88;1832053;78;21056;-67
2022/05/09 07:48:06;;;;;;;2.70;2.50;;;;;;;22.16;49.93;100521.26;1830742;77;21076;-68
2022/05/09 07:50:33;;;;;;;2.60;2.40;;;;;;;22.17;49.93;100513.95;1831922;78;21064;-69
2022/05/09 07:53:15;;;;;;;2.27;2.08;;;;;;;22.18;49.97;100513.73;1832012;77;21013;-68
2022/05/09 07:55:42;;;;;;;2.70;2.47;;;;;;;22.21;49.98;100526.52;1825768;77;20966;-67
2022/05/09 07:58:09;;;;;;;2.60;2.30;;;;;;;22.22;49.96;100529.53;1831915;78;21033;-68
2022/05/09 08:00:38;;;;;;;2.40;2.20;;;;;;;22.23;49.94;100528.47;1832057;77;21033;-67
2022/05/09 08:03:05;;;;;;;2.70;2.42;;;;;;;22.23;49.90;100515.75;1830942;77;21120;-68
2022/05/09 08:05:34;;;;;;;2.52;2.33;;;;;;;22.25;49.83;100527.24;1828243;78;21486;-68
2022/05/09 08:08:01;;;;;;;2.40;2.20;;;;;;;22.27;49.81;100529.70;1829299;78;20997;-68
2022/05/09 08:10:29;;;;;;;2.72;2.15;;;;;;;22.29;49.76;100533.00;1829258;77;21537;-67
2022/05/09 08:12:58;;;;;;;2.75;2.45;;;;;;;22.30;49.78;100534.13;1829292;78;21018;-67
2022/05/09 08:15:25;;;;;;;2.92;2.62;;;;;;;22.32;49.74;100534.73;1829237;78;21178;-67
2022/05/09 08:17:52;;;;;;;2.35;2.22;;;;;;;22.34;49.71;100537.22;1829177;78;21505;-67
2022/05/09 08:20:19;;;;;;;2.35;2.15;;;;;;;22.35;49.73;100540.24;1829268;78;21037;-68
2022/05/09 08:22:46;;;;;;;2.50;2.30;;;;;;;22.37;49.70;100539.48;1803377;78;21009;-67
2022/05/09 08:25:14;;;;;;;2.30;2.10;;;;;;;22.37;49.74;100547.07;1796698;79;21076;-67
2022/05/09 08:27:41;;;;;;;2.10;2.00;;;;;;;22.40;49.68;100541.72;1796753;79;21192;-67
2022/05/09 08:30:09;;;;;;;2.92;2.60;;;;;;;22.42;49.63;100536.91;1796546;79;20985;-67
2022/05/09 08:32:38;;;;;;;2.25;2.08;;;;;;;22.43;49.71;100539.92;1796681;79;21042;-67
2022/05/09 08:35:08;;;;;;;2.65;2.42;;;;;;;22.45;49.65;100535.11;1796683;79;21053;-67
2022/05/09 08:37:35;;;;;;;2.27;2.08;;;;;;;22.47;49.64;100540.30;1796804;79;21022;-67
2022/05/09 08:40:03;;;;;;;2.22;2.10;;;;;;;22.48;49.58;100537.88;1798061;78;21096;-67
2022/05/09 08:42:52;;;;;;;2.50;2.30;;;;;;;22.50;49.59;100539.33;1796602;79;21077;-66
2022/05/09 08:45:35;;;;;;;2.20;2.02;;;;;;;22.52;49.53;100549.91;1796318;79;21041;-67
2022/05/09 08:48:36;;;;;;;2.20;2.00;;;;;;;22.55;49.58;100546.22;1799801;78;20974;-67
2022/05/09 08:51:11;;;;;;;2.10;1.90;;;;;;;22.55;49.73;100548.11;1829537;78;21466;-68
2022/05/09 08:53:40;;;;;;;2.67;2.27;;;;;;;22.56;49.76;100551.09;1829623;78;21106;-67
2022/05/09 08:56:12;;;;;;;2.08;1.92;;;;;;;22.58;49.87;100547.67;1828638;78;20983;-67
2022/05/09 08:58:56;;;;;;;2.47;2.27;;;;;;;22.59;49.87;100550.66;1828747;77;21017;-68
2022/05/09 09:01:40;;;;;;;2.30;2.10;;;;;;;22.61;49.89;100549.08;1829401;77;20985;-67
2022/05/09 09:04:21;;;;;;;2.40;2.20;;;;;;;22.63;49.94;100556.45;1802738;78;21567;-67
2022/05/09 09:07:17;;;;;;;3.90;2.25;;;;;;;22.63;49.97;100565.39;1825920;78;21123;-68
2022/05/09 09:10:27;;;;;;;2.25;2.05;;;;;;;22.66;50.02;100557.36;1825870;78;21005;-68
2022/05/09 09:13:32;;;;;;;2.35;2.15;;;;;;;22.68;50.01;100557.95;1824737;78;21012;-67
2022/05/09 09:16:24;;;;;;;2.30;2.10;;;;;;;22.69;50.02;100552.82;1825976;78;21025;-67
2022/05/09 09:18:59;;;;;;;2.62;2.42;;;;;;;22.71;50.02;100553.42;1825876;78;21060;-67
2022/05/09 09:22:09;;;;;;;2.30;2.10;;;;;;;22.72;50.10;100555.09;1766870;78;21768;-68
2022/05/09 09:25:06;;;;;;;2.00;1.90;;;;;;;22.74;50.05;100561.92;1825681;78;21510;-67
2022/05/09 09:27:54;;;;;;;2.50;2.00;;;;;;;22.77;49.87;100563.33;1825954;78;20994;-67
2022/05/09 09:30:23;;;;;;;2.20;2.00;;;;;;;22.80;49.76;100571.02;1824556;78;21073;-67
2022/05/09 09:33:03;;;;;;;2.70;2.50;;;;;;;22.82;49.68;100565.38;1825830;78;21517;-67
2022/05/09 09:36:00;;;;;;;2.42;1.90;;;;;;;22.85;49.66;100573.88;1826148;78;21782;-66
2022/05/09 09:38:53;;;;;;;2.20;2.00;;;;;;;22.89;49.66;100572.86;1825602;78;21075;-67
2022/05/09 09:41:30;;;;;;;2.20;2.00;;;;;;;22.93;49.68;100568.66;1825531;78;21009;-68
2022/05/09 09:44:14;;;;;;;2.20;2.00;;;;;;;22.96;49.62;100571.71;1825898;78;21509;-67
2022/05/09 09:47:04;;;;;;;2.25;2.05;;;;;;;23.01;49.68;100573.75;1824734;78;21553;-67
2022/05/09 09:49:33;;;;;;;2.83;2.00;;;;;;;23.06;49.67;100566.30;1825754;78;21131;-68
2022/05/09 09:52:00;;;;;;;2.15;1.95;;;;;;;23.12;49.64;100576.22;1825181;78;21010;-67
2022/05/09 09:54:30;;;;;;;2.45;2.12;;;;;;;23.16;49.59;100572.02;1826033;78;21069;-68
2022/05/09 09:57:18;;;;;;;2.37;2.17;;;;;;;23.22;49.56;100572.44;1825826;78;21107;-67
2022/05/09 09:59:45;;;;;;;2.75;1.90;;;;;;;23.27;49.53;100571.20;1825014;78;21049;-69
2022/05/09 10:02:27;;;;;;;2.33;2.12;;;;;;;23.33;49.38;100573.00;1825838;78;21287;-67
2022/05/09 10:04:56;;;;;;;2.05;1.92;;;;;;;23.41;49.32;100577.27;1829046;78;21521;-68
2022/05/09 10:07:30;;;;;;;2.10;2.00;;;;;;;23.47;49.26;100566.84;1831960;78;21032;-67
2022/05/09 10:10:14;;;;;;;2.30;2.02;;;;;;;23.53;49.23;100574.57;1832065;77;21064;-67
2022/05/09 10:12:49;;;;;;;2.22;2.02;;;;;;;23.60;49.19;100576.63;1832044;77;21052;-68
2022/05/09 10:15:29;;;;;;;2.00;1.90;;;;;;;23.66;49.14;100573.00;1831554;77;21137;-68
2022/05/09 10:17:57;;;;;;;2.67;2.17;;;;;;;23.73;49.11;100576.41;1830203;77;21053;-68
2022/05/09 10:20:39;;;;;;;2.27;2.08;;;;;;;23.81;49.07;100576.61;1830970;77;21029;-68
2022/05/09 10:26:23;;;;;;;2.10;2.00;;;;;;;23.94;48.97;100571.50;1831956;77;20985;-68
2022/05/09 10:28:54;;;;;;;1.85;1.75;;;;;;;24.03;48.92;100576.86;1831897;78;21234;-68
2022/05/09 10:31:44;;;;;;;2.20;1.98;;;;;;;24.10;48.87;100565.87;1832078;78;21029;-68
2022/05/09 10:34:22;;;;;;;1.90;1.80;;;;;;;24.19;48.84;100568.52;1832149;78;21015;-68
2022/05/09 10:37:10;;;;;;;2.05;1.80;;;;;;;24.27;48.77;100570.05;1831972;77;20998;-67
2022/05/09 10:39:43;;;;;;;2.40;2.10;;;;;;;24.34;48.74;100570.75;1799327;79;21009;-66
2022/05/09 10:42:12;;;;;;;1.60;1.50;;;;;;;24.43;48.69;100567.12;1799248;79;21477;-67
2022/05/09 10:44:53;;;;;;;1.87;1.77;;;;;;;24.50;48.64;100575.42;1799082;79;20966;-68
2022/05/09 10:47:54;;;;;;;1.50;1.40;;;;;;;24.58;48.61;100565.28;1799170;79;21628;-68
2022/05/09 10:50:44;;;;;;;1.90;1.80;;;;;;;24.65;48.54;100562.72;1799204;79;21092;-67
2022/05/09 10:53:42;;;;;;;1.75;1.65;;;;;;;24.74;48.49;100553.64;1799160;79;21064;-67
2022/05/09 10:56:20;;;;;;;1.60;1.50;;;;;;;24.84;48.44;100567.95;1800595;78;21071;-67
2022/05/09 10:59:20;;;;;;;1.80;1.70;;;;;;;24.92;48.38;100568.95;1799311;79;21541;-68
2022/05/09 11:02:13;;;;;;;1.85;1.75;;;;;;;25.01;48.38;100570.72;1799205;79;21029;-67
2022/05/09 11:04:40;;;;;;;;;;;;;;;25.09;48.33;100563.02;1801726;79;21009;-68
2022/05/09 11:07:47;;;;;;;1.77;1.67;;;;;;;25.20;48.30;100577.59;1799134;79;20174;-68
2022/05/09 11:10:29;;;;;;;2.12;1.75;;;;;;;25.26;48.25;100562.23;1799155;79;21137;-68
2022/05/09 11:13:30;;;;;;;1.70;1.60;;;;;;;25.35;48.20;100559.40;1800129;78;20990;-68
2022/05/09 11:16:33;;;;;;;1.82;1.72;;;;;;;25.44;48.16;100568.80;1798872;79;21080;-68
2022/05/09 11:19:30;;;;;;;1.80;1.70;;;;;;;25.55;48.13;100558.89;1826541;78;20993;-68
2022/05/09 11:22:28;;;;;;;1.60;1.50;;;;;;;25.64;48.09;100568.84;1831975;78;21084;-68
2022/05/09 11:25:11;;;;;;;1.82;1.72;;;;;;;25.75;48.03;100557.56;1831427;77;22141;-68
2022/05/09 11:28:02;;;;;;;1.57;1.47;;;;;;;25.85;47.94;100567.27;1825015;77;21562;-68
2022/05/09 11:30:39;;;;;;;1.70;1.60;;;;;;;25.94;47.87;100560.88;1831754;77;21037;-68
2022/05/09 11:33:14;;;;;;;1.80;1.70;;;;;;;26.04;47.79;100567.30;1831866;78;21069;-69
2022/05/09 11:35:42;;;;;;;2.17;1.98;;;;;;;26.14;47.68;100572.06;1828824;77;21068;-67
2022/05/09 11:38:42;;;;;;;2.05;1.82;;;;;;;26.23;47.62;100565.11;1831983;77;21128;-68
2022/05/09 11:41:35;;;;;;;1.62;1.52;;;;;;;26.33;47.55;100560.34;1831812;78;21155;-67
2022/05/09 11:44:25;;;;;;;2.00;1.80;;;;;;;26.45;47.49;100563.75;1831970;78;21021;-68
2022/05/09 11:47:07;;;;;;;1.72;1.40;;;;;;;26.55;47.42;100558.95;1804633;77;21043;-69
2022/05/09 11:50:03;;;;;;;1.60;1.50;;;;;;;26.65;47.35;100556.92;1822943;78;20993;-68
2022/05/09 11:52:43;;;;;;;1.98;1.87;;;;;;;26.76;47.27;100560.05;1831944;78;21130;-68
2022/05/09 11:55:19;;;;;;;1.85;1.72;;;;;;;26.88;47.19;100564.80;1831734;77;21009;-68
2022/05/09 11:57:53;;;;;;;1.70;1.60;;;;;;;26.97;47.11;100563.00;1831932;77;20978;-68
2022/05/09 12:00:44;;;;;;;1.72;1.62;;;;;;;27.09;47.06;100564.20;1831977;77;21029;-68
2022/05/09 12:03:10;;;;;;;1.57;1.47;;;;;;;27.18;46.96;100552.56;1831026;77;21064;-68